Nearby METAR Reports

(scroll for additional cities)

 

KPSP - Palm Springs, California, USA
Distance from station: WNW 7mi, 11km
Updated: Fri, 13-Dec-2019 1:53am PST
Clear
Clear
 Wind from NNW
Wind: NNW 7 mph , 11 km/h
Temperature: 54°F , 12°C
Dew Point: 41°F , 5°C
Humidity: 63%
Barometer: 30.17 inHg , 1021.7 hPa
Clouds: Clear
Visibility: 10 miles , 16 km
2019/12/13 09:53 KPSP 130953Z AUTO 33006KT 10SM CLR 12/05 A3017 RMK AO2 SLP217 T01220050
KTRM - Thermal/Palm Spg, California, USA
Distance from station: SE 16mi, 26km
Updated: Fri, 13-Dec-2019 1:52am PST
Clear
Clear
 Wind from NW
Wind: NW 3 mph , 6 km/h
Temperature: 46°F , 8°C
Dew Point: 41°F , 5°C
Humidity: 82%
Barometer: 30.15 inHg , 1021 hPa
Clouds: Clear
Visibility: 10 miles , 16 km
2019/12/13 09:52 KTRM 130952Z AUTO 32003KT 10SM CLR 08/05 A3015 RMK AO2 SLP208 T00830050
 
KNXP - Twentynine Palms, California, USA
Distance from station: NNE 37mi, 60km
Updated: Fri, 13-Dec-2019 1:56am PST
Clear
Clear
 Wind from calm
Wind: Calm
Temperature: 45°F , 7°C
Dew Point: 37°F , 3°C
Humidity: 76%
Barometer: 30.26 inHg , 1024.7 hPa
Clouds: Clear
Visibility: 10 miles , 16 km
2019/12/13 09:56 KNXP 130956Z AUTO 00000KT 10SM CLR 07/03 A3026 RMK AO2 SLP227 T00670033
KL35 - Big Bear City, California, USA
Distance from station: NW 43mi, 69km
Updated: Fri, 13-Dec-2019 1:55am PST
Clear
Clear
 Wind from calm
Wind: Calm
Temperature: 32°F , 0°C
Dew Point: 28°F , -2°C
Humidity: 87%
Barometer: 30.38 inHg , 1028.8 hPa
Clouds: Clear
Visibility: 10 miles , 16 km
2019/12/13 09:55 KL35 130955Z AUTO 00000KT 10SM CLR 00/M02 A3038 RMK AO2
 
KF70 - Murrieta/Temecula, California, USA
Distance from station: WSW 45mi, 73km
Updated: Fri, 13-Dec-2019 1:55am PST
Clear
Clear
 Wind from NNE
Wind: NNE 3 mph , 6 km/h
Temperature: 48°F , 9°C
Dew Point: 45°F , 7°C
Humidity: 87%
Barometer: 30.18 inHg , 1022 hPa
Clouds: Clear
Visibility: 10 miles , 16 km
2019/12/13 09:55 KF70 130955Z AUTO 02003KT 10SM CLR 09/07 A3018 RMK AO1
KRIV - Riverside/March, California, USA
Distance from station: W 51mi, 82km
Updated: Fri, 13-Dec-2019 1:58am PST
Clear
Clear
 Wind from calm
Wind: Calm
Temperature: 45°F , 7°C
Dew Point: 45°F , 7°C
Humidity: 100%
Barometer: 30.17 inHg , 1021.7 hPa
Clouds: Clear
Visibility: 10 miles , 16 km
2019/12/13 09:58 KRIV 130958Z AUTO 00000KT 10SM CLR 07/07 A3017 RMK AO2 SLP213 T00700070
 
KSBD - San Bernardino, California, USA
Distance from station: WNW 54mi, 86km
Updated: Fri, 13-Dec-2019 2:01am PST
Clear
Clear
 Wind from ENE
Wind: ENE 3 mph , 6 km/h
Temperature: 50°F , 10°C
Dew Point: 43°F , 6°C
Humidity: 76%
Barometer: 30.17 inHg , 1021.7 hPa
Clouds: Clear
Visibility: 10 miles , 16 km
2019/12/13 10:01 KSBD 131001Z AUTO 07003KT 10SM CLR 10/06 A3017 RMK AO2 T01020062
KRNM - Ramona, California, USA
Distance from station: SSW 60mi, 96km
Updated: Fri, 13-Dec-2019 1:53am PST
Mist, Clear
Mist, Clear
 Wind from calm
Wind: Calm
Temperature: 43°F , 6°C
Dew Point: 41°F , 5°C
Humidity: 93%
Barometer: 30.17 inHg , 1021.7 hPa
Summary: Mist
Clouds: Clear
Visibility: 6 miles , 10 km
2019/12/13 09:53 KRNM 130953Z AUTO 00000KT 6SM BR CLR 06/05 A3017 RMK AO2 SLP209 T00610050
 
KRAL - Riverside, California, USA
Distance from station: W 62mi, 100km
Updated: Fri, 13-Dec-2019 1:53am PST
Clear
Clear
 Wind from calm
Wind: Calm
Temperature: 52°F , 11°C
Dew Point: 43°F , 6°C
Humidity: 72%
Barometer: 30.17 inHg , 1021.7 hPa
Clouds: Clear
Visibility: 10 miles , 16 km
2019/12/13 09:53 KRAL 130953Z AUTO 00000KT 10SM CLR 11/06 A3017 RMK AO2 SLP204 T01060061
KOKB - Oceanside, California, USA
Distance from station: SW 68mi, 109km
Updated: Fri, 13-Dec-2019 1:52am PST
Mist, Clear
Mist, Clear
 Wind from calm
Wind: Calm
Temperature: 48°F , 9°C
Dew Point: 46°F , 8°C
Humidity: 94%
Barometer: 30.15 inHg , 1021 hPa
Summary: Mist
Clouds: Clear
Visibility: 4 miles , 6 km
2019/12/13 09:52 KOKB 130952Z AUTO 00000KT 4SM BR CLR 09/08 A3015 RMK AO2 SLP210 T00890078
 
KONT - Ontario, California, USA
Distance from station: WNW 71mi, 114km
Updated: Fri, 13-Dec-2019 1:53am PST
Partly Cloudy
Partly Cloudy
 Wind from calm
Wind: Calm
Temperature: 55°F , 13°C
Dew Point: 45°F , 7°C
Humidity: 67%
Barometer: 30.16 inHg , 1021.3 hPa
Clouds: Partly Cloudy
Visibility: 10 miles , 16 km
Cloud details: Partly Cloudy 25000 ft
2019/12/13 09:53 KONT 130953Z 00000KT 10SM SCT250 13/07 A3016 RMK AO2 SLP207 T01280067 $
KNJK - El Centro Naf, California, USA
Distance from station: SSE 78mi, 126km
Updated: Fri, 13-Dec-2019 1:56am PST
Clear
Clear
 Wind from WSW
Wind: WSW 3 mph , 6 km/h
Temperature: 50°F , 10°C
Dew Point: 37°F , 3°C
Humidity: 62%
Barometer: 30.18 inHg , 1022 hPa
Clouds: Clear
Visibility: 10 miles , 16 km
2019/12/13 09:56 KNJK 130956Z AUTO 24003KT 10SM CLR 10/03 A3018 RMK AO2 SLP234 T01000028
 
KSEE - San Diego/Santee, California, USA
Distance from station: SSW 74mi, 120km
Updated: Fri, 13-Dec-2019 1:55am PST
Clear
Clear
 Wind from calm
Wind: Calm
Temperature: 50°F , 10°C
Dew Point: 48°F , 9°C
Humidity: 94%
Barometer: 30.16 inHg , 1021.3 hPa
Clouds: Clear
Visibility: 10 miles , 16 km
2019/12/13 09:55 KSEE 130955Z AUTO 00000KT 10SM CLR 10/09 A3016 RMK AO2
KCNO - Chino, California, USA
Distance from station: W 72mi, 116km
Updated: Fri, 13-Dec-2019 1:53am PST
Mist, Clear
Mist, Clear
 Wind from calm
Wind: Calm
Temperature: 48°F , 9°C
Dew Point: 46°F , 8°C
Humidity: 94%
Barometer: 30.18 inHg , 1022 hPa
Summary: Mist
Clouds: Clear
Visibility: 4 miles , 6 km
2019/12/13 09:53 KCNO 130953Z AUTO 00000KT 4SM BR CLR 09/08 A3018 RMK AO2 SLP216 T00940083

Metar display script from Saratoga-Weather.org